Time;durP1;ratioP1;P1;durP2;ratioP2;P2;SDS_P1;SDS_P2;PMS_P1;PMS_P2;Temp;Humidity;BMP_temperature;BMP_pressure;BME280_temperature;BME280_humidity;BME280_pressure;Samples;Min_cycle;Max_cycle;Signal;HPM_P1;HPM_P2
2021/12/28 00:00:24;;;;;;;16.03;10.93;;;;;;;3.12;92.38;99240.63;5063201;28;20704;-74
2021/12/28 00:02:51;;;;;;;15.33;10.83;;;;;;;3.11;92.10;99233.66;5062976;28;20204;-76
2021/12/28 00:05:19;;;;;;;16.63;11.70;;;;;;;3.14;92.33;99236.97;5060349;28;20258;-73
2021/12/28 00:07:46;;;;;;;17.43;11.57;;;;;;;3.17;92.35;99235.97;5060609;28;20225;-73
2021/12/28 00:10:15;;;;;;;15.97;11.10;;;;;;;3.17;91.64;99230.69;5060550;28;20201;-72
2021/12/28 00:12:43;;;;;;;17.83;11.60;;;;;;;3.18;91.91;99224.50;5063487;28;20228;-72
2021/12/28 00:15:31;;;;;;;15.30;11.27;;;;;;;3.20;91.72;99217.38;5060499;28;20300;-73
2021/12/28 00:17:59;;;;;;;15.00;11.17;;;;;;;3.20;92.18;99217.38;5064311;28;20228;-74
2021/12/28 00:20:26;;;;;;;14.53;11.30;;;;;;;3.22;91.96;99215.53;5060824;28;20211;-72
2021/12/28 00:22:52;;;;;;;14.73;11.47;;;;;;;3.22;92.31;99220.78;5064137;28;20219;-73
2021/12/28 00:25:19;;;;;;;14.97;11.40;;;;;;;3.24;91.96;99218.88;5067609;28;20201;-73
2021/12/28 00:27:47;;;;;;;17.10;12.00;;;;;;;3.26;91.71;99218.81;5065611;28;20624;-72
2021/12/28 00:30:13;;;;;;;14.77;10.93;;;;;;;3.27;92.14;99221.34;5062098;28;20272;-73
2021/12/28 00:32:40;;;;;;;16.17;11.47;;;;;;;3.27;92.10;99216.09;5065655;28;20233;-75
2021/12/28 00:35:08;;;;;;;16.23;11.87;;;;;;;3.25;91.55;99212.69;5067081;28;20205;-73
2021/12/28 00:37:35;;;;;;;15.90;11.93;;;;;;;3.27;91.62;99216.09;5062481;28;20228;-73
2021/12/28 00:40:02;;;;;;;17.60;12.03;;;;;;;3.28;92.32;99211.69;5059704;28;20217;-73
2021/12/28 00:42:28;;;;;;;17.03;10.90;;;;;;;3.28;92.10;99209.91;5064888;28;20578;-73
2021/12/28 00:44:56;;;;;;;16.73;11.83;;;;;;;3.29;91.48;99208.97;5064841;28;20205;-74
2021/12/28 00:47:22;;;;;;;13.57;10.83;;;;;;;3.32;91.55;99203.53;5068582;28;20316;-74
2021/12/28 00:49:49;;;;;;;15.40;11.13;;;;;;;3.35;92.30;99198.09;5068191;28;20208;-74
2021/12/28 00:52:15;;;;;;;14.63;10.43;;;;;;;3.37;91.65;99190.97;5067116;28;20229;-73
2021/12/28 00:54:42;;;;;;;17.73;11.53;;;;;;;3.38;92.43;99182.13;5064000;28;20205;-72
2021/12/28 00:57:08;;;;;;;15.10;10.43;;;;;;;3.38;91.73;99183.91;5055779;28;20220;-76
2021/12/28 00:59:35;;;;;;;15.17;10.57;;;;;;;3.38;91.30;99184.78;5067178;28;20220;-74
2021/12/28 01:02:03;;;;;;;15.33;11.70;;;;;;;3.40;91.24;99184.69;5062035;28;20226;-71
2021/12/28 01:04:31;;;;;;;14.90;10.93;;;;;;;3.40;91.62;99180.25;5066711;28;20202;-73
2021/12/28 01:06:57;;;;;;;16.17;11.33;;;;;;;3.41;91.96;99181.94;5063360;28;20315;-73
2021/12/28 01:09:30;;;;;;;15.10;11.47;;;;;;;3.41;91.68;99186.34;5064716;28;20203;-72
2021/12/28 01:11:56;;;;;;;13.40;10.40;;;;;;;3.39;91.36;99178.56;5064145;28;20773;-73
2021/12/28 01:14:23;;;;;;;14.10;10.47;;;;;;;3.40;91.43;99182.88;5065770;28;20223;-74
2021/12/28 01:16:50;;;;;;;13.13;9.87;;;;;;;3.42;91.03;99186.25;5065689;28;20243;-74
2021/12/28 01:19:18;;;;;;;14.83;10.60;;;;;;;3.43;91.46;99182.69;5065481;28;20580;-73
2021/12/28 01:21:44;;;;;;;13.77;9.67;;;;;;;3.44;91.63;99181.75;5063296;28;20208;-73
2021/12/28 01:24:11;;;;;;;14.07;10.50;;;;;;;3.46;91.15;99172.00;5063685;28;20206;-73
2021/12/28 01:26:38;;;;;;;12.03;9.93;;;;;;;3.47;91.76;99176.34;5061726;28;20607;-73
2021/12/28 01:29:05;;;;;;;14.30;10.60;;;;;;;3.47;91.65;99172.84;5066282;28;20244;-74
2021/12/28 01:31:32;;;;;;;12.50;8.87;;;;;;;3.48;91.02;99170.13;5066989;28;20228;-73
2021/12/28 01:33:59;;;;;;;13.33;9.37;;;;;;;3.49;90.94;99157.81;5061280;28;20205;-73
2021/12/28 01:36:27;;;;;;;13.50;9.90;;;;;;;3.47;90.81;99150.00;5059107;28;20213;-74
2021/12/28 01:38:53;;;;;;;14.07;10.47;;;;;;;3.47;91.49;99163.16;5058647;28;20202;-74
2021/12/28 01:41:20;;;;;;;12.77;10.07;;;;;;;3.47;91.15;99152.63;5061436;28;20629;-72
2021/12/28 01:43:47;;;;;;;11.63;8.70;;;;;;;3.49;91.01;99168.34;5061082;28;20587;-74
2021/12/28 01:46:14;;;;;;;12.93;9.87;;;;;;;3.50;90.85;99164.78;5067393;28;20201;-73
2021/12/28 01:48:43;;;;;;;13.60;9.10;;;;;;;3.48;90.99;99167.50;5067455;28;20265;-72
2021/12/28 01:51:12;;;;;;;13.37;10.23;;;;;;;3.47;91.05;99163.16;5063526;28;20202;-73
2021/12/28 01:53:41;;;;;;;13.40;10.40;;;;;;;3.48;91.25;99166.66;5070123;28;20219;-73
2021/12/28 01:56:11;;;;;;;12.07;9.57;;;;;;;3.47;91.39;99152.63;5066293;28;20800;-75
2021/12/28 01:58:38;;;;;;;12.37;9.60;;;;;;;3.47;90.98;99150.00;5069377;28;20220;-73
2021/12/28 02:01:06;;;;;;;12.77;9.87;;;;;;;3.47;90.70;99150.00;5067518;28;20587;-76
2021/12/28 02:03:34;;;;;;;14.67;10.03;;;;;;;3.47;91.35;99149.16;5070850;28;20192;-73
2021/12/28 02:06:01;;;;;;;12.23;9.53;;;;;;;3.46;90.67;99143.06;5060097;28;20209;-73
2021/12/28 02:08:28;;;;;;;11.97;9.40;;;;;;;3.46;90.64;99143.06;5061240;28;20315;-73
2021/12/28 02:10:57;;;;;;;12.10;9.07;;;;;;;3.47;90.45;99151.78;5054558;28;20228;-73
2021/12/28 02:13:24;;;;;;;11.97;8.70;;;;;;;3.49;90.65;99144.66;5067608;28;20235;-74
2021/12/28 02:15:52;;;;;;;11.67;8.87;;;;;;;3.49;90.60;99145.50;5066220;28;20205;-74
2021/12/28 02:18:22;;;;;;;11.90;8.27;;;;;;;3.52;90.66;99155.00;5079582;22;20236;-71
2021/12/28 02:20:51;;;;;;;11.90;9.07;;;;;;;3.52;90.76;99157.66;5046022;28;20217;-71
2021/12/28 02:23:18;;;;;;;11.03;8.47;;;;;;;3.54;90.55;99150.50;5047290;28;20208;-71
2021/12/28 02:25:45;;;;;;;10.30;9.07;;;;;;;3.57;90.88;99157.38;5034263;28;20301;-71
2021/12/28 02:28:14;;;;;;;10.33;8.07;;;;;;;3.59;90.48;99158.97;5042836;28;20226;-72
2021/12/28 02:30:44;;;;;;;12.93;9.03;;;;;;;3.60;91.15;99144.00;5035366;28;20716;-71
2021/12/28 02:33:11;;;;;;;12.10;9.43;;;;;;;3.61;90.69;99148.34;5037941;28;20237;-71
2021/12/28 02:35:39;;;;;;;12.03;8.77;;;;;;;3.64;90.79;99138.50;5031626;28;20197;-71
2021/12/28 02:38:09;;;;;;;10.73;8.33;;;;;;;3.67;90.65;99126.94;5022861;28;20226;-71
2021/12/28 02:40:39;;;;;;;11.67;8.77;;;;;;;3.68;91.16;99128.63;5017698;28;20207;-71
2021/12/28 02:43:08;;;;;;;13.30;8.43;;;;;;;3.68;91.02;99116.31;5021189;28;20214;-71
2021/12/28 02:45:37;;;;;;;12.43;8.27;;;;;;;3.69;91.20;99122.44;5037478;28;20205;-72
2021/12/28 02:48:05;;;;;;;12.50;8.33;;;;;;;3.70;90.83;99118.84;5028644;28;20219;-72
2021/12/28 02:50:34;;;;;;;10.50;7.67;;;;;;;3.70;90.82;99119.72;5031950;28;20222;-71
2021/12/28 02:53:01;;;;;;;10.43;8.30;;;;;;;3.72;90.65;99123.09;5021920;28;20236;-71
2021/12/28 02:55:33;;;;;;;10.90;8.17;;;;;;;3.74;91.17;99117.75;5037418;28;20209;-70
2021/12/28 02:58:02;;;;;;;10.40;7.93;;;;;;;3.75;91.08;99117.66;5022901;28;20229;-71
2021/12/28 03:00:31;;;;;;;10.73;8.33;;;;;;;3.76;91.31;99113.25;5038750;28;20210;-71
2021/12/28 03:02:58;;;;;;;11.57;8.83;;;;;;;3.77;91.19;99115.75;5046703;28;20215;-71
2021/12/28 03:05:25;;;;;;;12.13;8.90;;;;;;;3.78;91.13;99112.19;5032442;28;20699;-72
2021/12/28 03:07:51;;;;;;;10.87;8.63;;;;;;;3.78;91.25;99112.19;5027931;28;20237;-72
2021/12/28 03:10:18;;;;;;;10.43;8.83;;;;;;;3.81;91.32;99108.53;5013668;28;20309;-72
2021/12/28 03:12:45;;;;;;;10.90;8.80;;;;;;;3.81;91.33;99103.25;5026377;28;20226;-71
2021/12/28 03:15:13;;;;;;;13.23;9.03;;;;;;;3.82;90.63;99100.53;5045518;28;20202;-72
2021/12/28 03:17:40;;;;;;;10.20;8.20;;;;;;;3.83;91.12;99096.97;5038319;28;20230;-72
2021/12/28 03:20:08;;;;;;;11.20;8.47;;;;;;;3.83;90.62;99099.59;5022481;28;20198;-71
2021/12/28 03:22:37;;;;;;;10.20;8.57;;;;;;;3.85;91.15;99104.78;5038202;28;20202;-72
2021/12/28 03:25:04;;;;;;;10.40;8.53;;;;;;;3.86;90.61;99098.56;5043022;28;20221;-71
2021/12/28 03:27:31;;;;;;;11.53;8.47;;;;;;;3.88;91.17;99095.84;5039571;28;20218;-72
2021/12/28 03:29:59;;;;;;;9.80;8.03;;;;;;;3.89;91.34;99089.63;5030146;28;20572;-72
2021/12/28 03:32:25;;;;;;;9.57;7.93;;;;;;;3.89;91.49;99077.31;5022837;28;20237;-71
2021/12/28 03:34:52;;;;;;;9.40;7.83;;;;;;;3.90;91.11;99073.75;5017276;28;20209;-71
2021/12/28 03:37:18;;;;;;;11.43;8.30;;;;;;;3.93;90.95;99070.94;5012360;28;20746;-71
2021/12/28 03:39:45;;;;;;;9.70;7.90;;;;;;;3.95;90.93;99070.81;5040412;28;20207;-72
2021/12/28 03:42:11;;;;;;;9.97;8.20;;;;;;;3.97;91.44;99064.50;5045831;28;20214;-72
2021/12/28 03:44:38;;;;;;;8.33;6.97;;;;;;;4.00;91.03;99066.97;5021755;28;20207;-72
2021/12/28 03:47:07;;;;;;;9.73;7.90;;;;;;;4.01;90.90;99055.47;5020610;28;20202;-72
2021/12/28 03:49:34;;;;;;;8.27;7.40;;;;;;;4.03;90.71;99055.38;5042403;28;20210;-72
2021/12/28 03:52:01;;;;;;;10.27;8.17;;;;;;;4.06;91.18;99057.84;5031193;28;20222;-72
2021/12/28 03:54:28;;;;;;;9.53;8.03;;;;;;;4.07;91.10;99059.53;5033461;28;20197;-72
2021/12/28 03:56:56;;;;;;;10.17;8.60;;;;;;;4.06;91.05;99048.16;5031691;28;20206;-72
2021/12/28 03:59:23;;;;;;;10.73;7.80;;;;;;;4.06;90.79;99034.97;5035227;28;20256;-72
2021/12/28 04:01:49;;;;;;;9.97;8.43;;;;;;;4.06;90.65;99042.88;5015146;28;20209;-71
2021/12/28 04:04:17;;;;;;;10.07;8.40;;;;;;;4.07;91.27;99028.75;5019023;28;20206;-71
2021/12/28 04:06:44;;;;;;;10.43;8.37;;;;;;;4.08;90.92;99034.88;5015202;28;20222;-71
2021/12/28 04:09:12;;;;;;;9.67;8.23;;;;;;;4.07;90.64;99034.03;5025546;28;20244;-71
2021/12/28 04:11:39;;;;;;;11.33;8.90;;;;;;;4.10;91.22;99027.72;5042245;28;20208;-72
2021/12/28 04:14:07;;;;;;;9.67;7.87;;;;;;;4.11;90.74;99032.91;5048139;28;20224;-72
2021/12/28 04:16:36;;;;;;;11.03;8.57;;;;;;;4.12;90.63;99031.94;5030304;28;20205;-72
2021/12/28 04:19:05;;;;;;;11.50;8.83;;;;;;;4.12;90.71;99033.75;5042050;28;20252;-72
2021/12/28 04:21:34;;;;;;;10.73;7.77;;;;;;;4.13;91.21;99022.25;5022299;28;20217;-72
2021/12/28 04:24:01;;;;;;;11.43;8.40;;;;;;;4.15;91.02;99018.56;5022445;28;20206;-70
2021/12/28 04:26:29;;;;;;;9.27;7.87;;;;;;;4.16;91.39;99022.91;5020184;28;20214;-72
2021/12/28 04:28:55;;;;;;;9.40;8.20;;;;;;;4.16;90.69;99022.06;5032902;28;20229;-72
2021/12/28 04:31:22;;;;;;;9.67;8.23;;;;;;;4.15;91.04;99034.38;5032677;28;20217;-72
2021/12/28 04:33:49;;;;;;;10.57;9.00;;;;;;;4.14;90.88;99024.78;5028900;28;20609;-72
2021/12/28 04:36:18;;;;;;;11.10;9.20;;;;;;;4.11;91.47;99025.00;5011142;28;20218;-72
2021/12/28 04:38:47;;;;;;;11.57;8.73;;;;;;;4.14;91.56;99021.31;5011841;28;20227;-72
2021/12/28 04:41:14;;;;;;;11.43;8.57;;;;;;;4.15;91.22;99030.91;5018805;28;20213;-71
2021/12/28 04:43:41;;;;;;;11.00;8.57;;;;;;;4.15;91.30;99021.22;5029291;28;20210;-72
2021/12/28 04:46:08;;;;;;;10.30;8.43;;;;;;;4.17;91.15;99019.31;5014760;28;20219;-72
2021/12/28 04:48:35;;;;;;;10.97;8.60;;;;;;;4.19;91.66;99017.44;5027025;28;20222;-71
2021/12/28 04:51:03;;;;;;;11.53;8.33;;;;;;;4.19;91.63;99014.81;5018079;28;20218;-72
2021/12/28 04:53:29;;;;;;;11.23;8.97;;;;;;;4.21;91.40;99014.72;5012558;28;20241;-72
2021/12/28 04:55:57;;;;;;;11.83;9.37;;;;;;;4.22;91.49;99013.78;5027287;28;20214;-72
2021/12/28 04:58:24;;;;;;;14.13;9.03;;;;;;;4.23;91.49;99017.25;5022332;28;20234;-72
2021/12/28 05:00:52;;;;;;;14.37;9.93;;;;;;;4.24;91.42;99017.16;5017189;28;20688;-72
2021/12/28 05:03:19;;;;;;;15.37;10.00;;;;;;;4.25;91.81;99015.38;5023541;28;20210;-72
2021/12/28 05:05:50;;;;;;;13.77;10.47;;;;;;;4.26;91.51;99012.66;5029296;28;20197;-72
2021/12/28 05:08:19;;;;;;;12.63;9.63;;;;;;;4.26;91.79;99012.66;5033839;28;20646;-72
2021/12/28 05:10:46;;;;;;;10.83;9.07;;;;;;;4.28;91.59;99015.19;5015888;28;20271;-72
2021/12/28 05:13:14;;;;;;;11.30;8.53;;;;;;;4.27;92.14;99008.22;5028224;28;20226;-72
2021/12/28 05:15:42;;;;;;;12.10;9.03;;;;;;;4.27;91.78;99005.59;5016346;28;20292;-71
2021/12/28 05:18:10;;;;;;;12.60;9.90;;;;;;;4.31;91.70;99002.63;5020277;28;20250;-71
2021/12/28 05:20:37;;;;;;;13.70;9.87;;;;;;;4.32;92.12;98992.94;5009787;28;20211;-72
2021/12/28 05:23:04;;;;;;;13.47;9.57;;;;;;;4.33;92.00;98994.63;5020119;28;20211;-72
2021/12/28 05:25:32;;;;;;;12.50;9.27;;;;;;;4.34;91.96;98984.00;5017248;28;20210;-72
2021/12/28 05:27:58;;;;;;;12.73;10.00;;;;;;;4.34;92.37;98975.25;5013345;28;20720;-72
2021/12/28 05:30:26;;;;;;;9.53;7.93;;;;;;;4.36;92.49;98966.28;5017265;28;20225;-72
2021/12/28 05:32:53;;;;;;;14.33;9.30;;;;;;;4.38;92.12;98974.09;5015091;28;20601;-72
2021/12/28 05:35:19;;;;;;;12.10;8.50;;;;;;;4.40;92.42;98961.69;5030438;28;20206;-72
2021/12/28 05:37:46;;;;;;;12.10;8.63;;;;;;;4.41;92.57;98968.66;5009831;28;20226;-72
2021/12/28 05:40:15;;;;;;;13.50;9.57;;;;;;;4.40;92.09;98965.16;5020763;28;20780;-72
2021/12/28 05:42:42;;;;;;;14.50;10.07;;;;;;;4.41;92.58;98958.09;5010301;28;20878;-72
2021/12/28 05:45:10;;;;;;;14.70;8.97;;;;;;;4.43;92.11;98961.50;5010560;28;20215;-72
2021/12/28 05:47:38;;;;;;;14.13;9.00;;;;;;;4.44;92.09;98950.00;5021614;28;20234;-72
2021/12/28 05:50:07;;;;;;;14.67;9.53;;;;;;;4.44;92.18;98958.75;5016457;28;20210;-72
2021/12/28 05:52:34;;;;;;;13.40;9.17;;;;;;;4.46;92.36;98964.78;5023178;28;20213;-72
2021/12/28 05:55:01;;;;;;;14.23;9.40;;;;;;;4.46;92.12;98958.66;5017998;28;20210;-72
2021/12/28 05:57:30;;;;;;;14.57;9.13;;;;;;;4.46;92.18;98956.88;5020145;28;20731;-71
2021/12/28 05:59:56;;;;;;;14.23;9.13;;;;;;;4.45;92.37;98960.44;5023765;28;20225;-72
2021/12/28 06:02:23;;;;;;;13.73;8.87;;;;;;;4.46;92.20;98948.97;5022881;28;20214;-73
2021/12/28 06:04:51;;;;;;;13.27;8.37;;;;;;;4.47;92.39;98950.66;5030740;28;20663;-71
2021/12/28 06:07:17;;;;;;;11.20;8.37;;;;;;;4.47;92.30;98948.00;5022948;28;20777;-72
2021/12/28 06:09:44;;;;;;;12.47;8.63;;;;;;;4.48;92.40;98941.75;5023946;28;20221;-72
2021/12/28 06:12:11;;;;;;;11.00;8.67;;;;;;;4.48;92.31;98954.09;5011752;28;20221;-72
2021/12/28 06:14:38;;;;;;;12.93;8.30;;;;;;;4.49;92.05;98953.16;5011012;28;20226;-71
2021/12/28 06:17:05;;;;;;;13.63;7.80;;;;;;;4.50;92.24;98941.66;5015080;28;20212;-72
2021/12/28 06:19:31;;;;;;;11.27;8.10;;;;;;;4.51;92.36;98946.00;5033350;28;20203;-72
2021/12/28 06:21:59;;;;;;;11.57;8.33;;;;;;;4.50;92.03;98939.88;5014328;28;20217;-72
2021/12/28 06:24:26;;;;;;;13.83;8.77;;;;;;;4.48;92.40;98936.50;5010786;28;20222;-72
2021/12/28 06:26:52;;;;;;;13.73;9.30;;;;;;;4.46;92.12;98940.19;5017934;28;20569;-72
2021/12/28 06:29:19;;;;;;;14.27;9.53;;;;;;;4.44;92.65;98931.53;5021795;28;20210;-72
2021/12/28 06:31:45;;;;;;;12.47;9.03;;;;;;;4.41;92.27;98929.09;5038655;28;20222;-71
2021/12/28 06:34:12;;;;;;;14.83;9.53;;;;;;;4.40;92.49;98928.25;5034869;28;20226;-72
2021/12/28 06:36:39;;;;;;;15.53;8.90;;;;;;;4.39;92.09;98933.63;5019547;28;20223;-72
2021/12/28 06:39:07;;;;;;;12.50;8.70;;;;;;;4.38;92.61;98943.31;5014241;28;20238;-72
2021/12/28 06:41:34;;;;;;;11.30;9.07;;;;;;;4.38;92.43;98939.84;5013516;28;20225;-72
2021/12/28 06:44:00;;;;;;;13.03;8.70;;;;;;;4.36;92.68;98939.94;5015269;28;20211;-72
2021/12/28 06:46:27;;;;;;;14.97;8.80;;;;;;;4.36;92.09;98939.09;5032403;28;20207;-72
2021/12/28 06:48:53;;;;;;;13.50;9.10;;;;;;;4.34;92.23;98947.09;5034558;28;20218;-71
2021/12/28 06:51:20;;;;;;;13.00;9.27;;;;;;;4.35;92.43;98934.75;5014933;28;20211;-73
2021/12/28 06:53:47;;;;;;;13.73;9.13;;;;;;;4.36;92.12;98945.22;5015119;28;20231;-73
2021/12/28 06:56:15;;;;;;;14.83;8.40;;;;;;;4.38;92.34;98931.94;5024764;28;20205;-72
2021/12/28 06:58:42;;;;;;;14.87;9.07;;;;;;;4.40;92.29;98937.97;5015409;28;20230;-73
2021/12/28 07:01:09;;;;;;;15.17;8.30;;;;;;;4.43;92.83;98935.13;5021044;28;20207;-73
2021/12/28 07:03:35;;;;;;;18.57;10.10;;;;;;;4.43;92.79;98933.34;5037221;28;20213;-72
2021/12/28 07:06:03;;;;;;;17.53;9.87;;;;;;;4.43;92.80;98935.13;5018218;28;20213;-73
2021/12/28 07:08:30;;;;;;;16.10;9.33;;;;;;;4.44;92.60;98937.66;5023004;28;20227;-73
2021/12/28 07:10:56;;;;;;;14.77;9.23;;;;;;;4.46;92.80;98930.50;5029546;28;20210;-73
2021/12/28 07:13:24;;;;;;;15.17;9.43;;;;;;;4.46;93.03;98935.78;5019945;28;20229;-73
2021/12/28 07:15:51;;;;;;;14.77;9.63;;;;;;;4.48;92.83;98933.00;5019009;28;20219;-73
2021/12/28 07:18:18;;;;;;;15.83;8.90;;;;;;;4.48;92.88;98927.75;5031666;28;20740;-75
2021/12/28 07:20:44;;;;;;;12.53;8.03;;;;;;;4.48;93.33;98931.22;5020950;28;20700;-74
2021/12/28 07:23:11;;;;;;;16.57;8.87;;;;;;;4.50;92.86;98926.69;5020653;28;20211;-76
2021/12/28 07:25:38;;;;;;;16.13;9.30;;;;;;;4.52;93.31;98931.88;5012371;28;20207;-73
2021/12/28 07:28:05;;;;;;;14.50;8.60;;;;;;;4.53;93.00;98929.13;5026552;28;20226;-75
2021/12/28 07:30:33;;;;;;;15.80;8.40;;;;;;;4.55;92.99;98929.03;5026948;28;20581;-75
2021/12/28 07:32:59;;;;;;;15.90;8.37;;;;;;;4.56;93.82;98932.53;5026088;28;20580;-74
2021/12/28 07:35:26;;;;;;;12.87;8.57;;;;;;;4.58;93.69;98938.53;5032335;28;20218;-74
2021/12/28 07:37:53;;;;;;;19.77;9.17;;;;;;;4.60;93.34;98939.28;5024910;28;20232;-72
2021/12/28 07:40:21;;;;;;;15.93;8.73;;;;;;;4.61;93.82;98935.72;5024221;28;20289;-74
2021/12/28 07:42:47;;;;;;;13.23;8.80;;;;;;;4.60;93.78;98932.22;5012413;28;20240;-75
2021/12/28 07:45:15;;;;;;;14.13;8.33;;;;;;;4.62;93.60;98929.50;5022017;28;20214;-74
2021/12/28 07:47:44;;;;;;;14.50;8.70;;;;;;;4.63;93.38;98920.63;5035349;28;20251;-77
2021/12/28 07:50:13;;;;;;;15.53;8.73;;;;;;;4.66;93.60;98923.88;5013057;28;20215;-74
2021/12/28 07:52:40;;;;;;;18.23;8.43;;;;;;;4.68;93.81;98926.44;5012673;28;20218;-74
2021/12/28 07:55:08;;;;;;;17.90;8.83;;;;;;;4.69;93.95;98918.41;5030001;28;20597;-76
2021/12/28 07:57:35;;;;;;;18.17;8.83;;;;;;;4.72;93.84;98920.00;5027540;28;20222;-73
2021/12/28 08:00:04;;;;;;;12.33;8.10;;;;;;;4.73;93.92;98914.63;5027346;28;20197;-75
2021/12/28 08:02:31;;;;;;;15.97;8.93;;;;;;;4.73;93.92;98916.41;5030931;28;20271;-75
2021/12/28 08:04:59;;;;;;;16.00;8.37;;;;;;;4.73;93.71;98912.00;5030980;28;20293;-75
2021/12/28 08:07:25;;;;;;;15.07;8.47;;;;;;;4.73;94.16;98912.00;5031899;28;20732;-75
2021/12/28 08:09:52;;;;;;;15.90;8.97;;;;;;;4.75;93.86;98912.75;5026196;28;20783;-75
2021/12/28 08:12:19;;;;;;;11.20;7.90;;;;;;;4.76;93.89;98918.84;5026687;28;20782;-75
2021/12/28 08:14:45;;;;;;;12.60;7.97;;;;;;;4.77;93.99;98923.19;5028269;28;20230;-73
2021/12/28 08:19:43;;;;;;;17.60;8.47;;;;;;;4.78;93.66;98914.31;5058284;22;21430;-69
2021/12/28 08:22:11;;;;;;;13.10;7.27;;;;;;;4.80;93.88;98923.00;5037172;28;20213;-68
2021/12/28 08:24:38;;;;;;;12.37;8.20;;;;;;;4.81;93.90;98914.97;5042138;28;20213;-69
2021/12/28 08:27:05;;;;;;;15.43;8.40;;;;;;;4.82;94.04;98913.19;5040479;28;20206;-68
2021/12/28 08:29:31;;;;;;;13.70;8.00;;;;;;;4.83;93.62;98902.53;5040556;28;20236;-70
2021/12/28 08:31:58;;;;;;;12.17;7.20;;;;;;;4.85;93.93;98903.25;5038590;28;20206;-68
2021/12/28 08:34:24;;;;;;;14.40;6.83;;;;;;;4.87;94.03;98896.06;5016762;28;20238;-69
2021/12/28 08:36:51;;;;;;;14.10;7.93;;;;;;;4.89;93.96;98891.53;5026355;28;20211;-69
2021/12/28 08:39:19;;;;;;;9.63;6.47;;;;;;;4.92;94.01;98887.00;5022282;28;20233;-69
2021/12/28 08:41:45;;;;;;;12.87;7.53;;;;;;;4.94;93.83;98901.78;5025478;28;20233;-70
2021/12/28 08:44:12;;;;;;;15.07;7.60;;;;;;;4.97;94.16;98892.81;5021489;28;20217;-68
2021/12/28 08:46:39;;;;;;;14.17;6.53;;;;;;;5.00;94.05;98892.63;5023736;28;20214;-68
2021/12/28 08:49:06;;;;;;;17.77;7.60;;;;;;;5.03;94.17;98892.38;5022085;28;20233;-69
2021/12/28 08:51:32;;;;;;;10.73;6.67;;;;;;;5.04;94.43;98892.28;5023086;28;20674;-69
2021/12/28 08:53:59;;;;;;;16.03;8.33;;;;;;;5.08;94.30;98891.13;5024538;28;20227;-69
2021/12/28 08:56:27;;;;;;;13.13;6.47;;;;;;;5.11;94.13;98893.56;5026451;28;20226;-69
2021/12/28 08:58:53;;;;;;;12.57;6.13;;;;;;;5.16;94.19;98885.34;5023356;28;20240;-69
2021/12/28 09:01:21;;;;;;;13.10;6.13;;;;;;;5.20;94.19;98889.44;5033957;28;20206;-68
2021/12/28 09:03:48;;;;;;;12.87;6.53;;;;;;;5.22;94.08;98877.81;5035762;28;20259;-70
2021/12/28 09:06:14;;;;;;;14.13;6.67;;;;;;;5.27;94.32;98871.38;5016845;28;20214;-68
2021/12/28 09:08:41;;;;;;;15.50;6.40;;;;;;;5.27;94.49;98872.22;5026278;28;20718;-69
2021/12/28 09:11:07;;;;;;;11.40;6.27;;;;;;;5.32;94.40;98866.63;5023167;28;20474;-68
2021/12/28 09:13:36;;;;;;;9.97;5.97;;;;;;;5.37;94.33;98854.81;5018451;28;20225;-69
2021/12/28 09:16:03;;;;;;;9.23;5.23;;;;;;;5.42;94.54;98846.53;5023548;28;20206;-68
2021/12/28 09:18:30;;;;;;;12.00;5.73;;;;;;;5.50;94.34;98850.34;5025402;28;20709;-69
2021/12/28 09:20:57;;;;;;;8.00;4.87;;;;;;;5.57;94.38;98850.72;5021499;28;20210;-69
2021/12/28 09:23:24;;;;;;;15.23;5.50;;;;;;;5.63;94.17;98850.31;5025198;28;20664;-70
2021/12/28 09:25:51;;;;;;;16.07;5.23;;;;;;;5.67;94.33;98856.22;5022824;28;20206;-70
2021/12/28 09:28:18;;;;;;;16.00;5.30;;;;;;;5.70;94.20;98850.72;5026163;28;20230;-70
2021/12/28 09:30:46;;;;;;;12.43;5.27;;;;;;;5.73;94.12;98853.97;5028716;28;20206;-70
2021/12/28 09:33:12;;;;;;;13.17;5.43;;;;;;;5.76;93.96;98859.03;5024661;28;20198;-68
2021/12/28 09:35:39;;;;;;;11.10;4.43;;;;;;;5.82;93.46;98863.03;5027775;28;20229;-71
2021/12/28 09:38:06;;;;;;;11.40;5.43;;;;;;;5.86;94.00;98861.84;5023473;28;20841;-68
2021/12/28 09:40:35;;;;;;;9.07;4.60;;;;;;;5.92;93.55;98864.91;5023505;28;20205;-69
2021/12/28 09:43:02;;;;;;;9.20;4.63;;;;;;;5.97;93.21;98851.38;5020406;28;20633;-69
2021/12/28 09:45:29;;;;;;;10.43;4.40;;;;;;;6.03;93.28;98856.22;5024564;28;20199;-69
2021/12/28 09:47:57;;;;;;;11.67;4.57;;;;;;;6.06;92.93;98853.34;5025143;28;20273;-70
2021/12/28 09:50:24;;;;;;;14.43;4.00;;;;;;;6.09;92.60;98850.47;5023063;28;20218;-70
2021/12/28 09:52:51;;;;;;;7.63;4.43;;;;;;;6.10;92.31;98849.50;5013935;28;20210;-69
2021/12/28 09:55:19;;;;;;;8.93;4.43;;;;;;;6.09;92.44;98845.19;5017881;28;20226;-69
2021/12/28 09:57:46;;;;;;;10.93;5.13;;;;;;;6.10;91.90;98835.44;5017501;28;20226;-69
2021/12/28 10:00:14;;;;;;;9.03;4.70;;;;;;;6.10;91.90;98838.94;5016234;28;20268;-69
2021/12/28 10:02:40;;;;;;;8.70;4.20;;;;;;;6.09;91.81;98837.25;5019216;28;20208;-70
2021/12/28 10:05:11;;;;;;;7.80;3.90;;;;;;;6.10;91.26;98843.38;5012072;28;20203;-70
2021/12/28 10:07:43;;;;;;;7.90;4.10;;;;;;;6.10;91.43;98838.94;5015049;28;20722;-69
2021/12/28 10:10:10;;;;;;;8.17;4.57;;;;;;;6.08;90.93;98835.59;5019542;28;20213;-69
2021/12/28 10:12:39;;;;;;;6.67;3.83;;;;;;;6.09;91.17;98831.97;5017580;28;20206;-69
2021/12/28 10:15:10;;;;;;;7.73;4.03;;;;;;;6.11;90.77;98829.22;5017740;28;20568;-70
2021/12/28 10:17:39;;;;;;;10.27;4.83;;;;;;;6.10;90.71;98830.16;5013821;28;20688;-70
2021/12/28 10:20:09;;;;;;;7.37;3.83;;;;;;;6.11;90.17;98821.28;5023010;28;20302;-69
2021/12/28 10:22:39;;;;;;;8.70;4.03;;;;;;;6.10;90.72;98819.59;5024031;28;20194;-69
2021/12/28 10:25:09;;;;;;;8.07;3.80;;;;;;;6.11;90.30;98818.63;5025630;28;20198;-70
2021/12/28 10:27:39;;;;;;;11.03;4.47;;;;;;;6.11;90.33;98818.63;5021223;28;20613;-70
2021/12/28 10:30:11;;;;;;;5.07;3.80;;;;;;;6.10;90.14;98801.94;5023022;28;20199;-70
2021/12/28 10:32:39;;;;;;;7.20;3.53;;;;;;;6.12;90.23;98805.31;5021560;28;20222;-69
2021/12/28 10:35:08;;;;;;;6.73;3.87;;;;;;;6.13;90.19;98806.16;5024570;28;20601;-70
2021/12/28 10:37:38;;;;;;;9.33;4.13;;;;;;;6.13;89.91;98809.66;5025190;28;20202;-69
2021/12/28 10:40:08;;;;;;;9.87;3.83;;;;;;;6.14;89.55;98797.28;5020174;28;20210;-70
2021/12/28 10:42:41;;;;;;;7.40;3.27;;;;;;;6.16;89.76;98796.22;5028144;28;20202;-69
2021/12/28 10:45:12;;;;;;;8.90;3.70;;;;;;;6.16;89.46;98790.91;5016185;28;20207;-69
2021/12/28 10:47:39;;;;;;;7.27;3.90;;;;;;;6.18;89.94;98791.66;5019598;28;20759;-69
2021/12/28 10:50:22;;;;;;;6.47;4.20;;;;;;;6.18;89.37;98788.16;5017405;28;20702;-70
2021/12/28 10:52:59;;;;;;;6.57;4.17;;;;;;;6.20;89.13;98795.03;5020206;28;20702;-69
2021/12/28 10:55:28;;;;;;;6.77;3.80;;;;;;;6.21;89.75;98783.50;5025317;28;20287;-70
2021/12/28 10:57:55;;;;;;;9.83;3.97;;;;;;;6.24;89.63;98778.00;5027770;28;20609;-70
2021/12/28 11:00:25;;;;;;;7.40;4.03;;;;;;;6.25;89.56;98777.03;5019363;28;20327;-69
2021/12/28 11:02:53;;;;;;;10.27;4.13;;;;;;;6.28;89.24;98774.13;5019791;28;20309;-70
2021/12/28 11:05:34;;;;;;;5.30;3.70;;;;;;;6.30;88.98;98766.09;5016294;28;20676;-70
2021/12/28 11:08:02;;;;;;;5.57;4.00;;;;;;;6.33;89.36;98760.56;5014272;28;20230;-69
2021/12/28 11:10:29;;;;;;;6.40;3.60;;;;;;;6.36;89.24;98762.16;5021517;28;20202;-70
2021/12/28 11:12:57;;;;;;;4.50;3.90;;;;;;;6.37;89.44;98746.16;5022427;28;20222;-70
2021/12/28 11:15:24;;;;;;;7.77;3.67;;;;;;;6.39;89.08;98752.19;5019860;28;20280;-70
2021/12/28 11:17:51;;;;;;;5.93;3.80;;;;;;;6.42;89.23;98745.81;5018681;28;20242;-69
2021/12/28 11:20:28;;;;;;;3.80;3.10;;;;;;;6.46;89.59;98745.44;5023008;28;20665;-69
2021/12/28 11:23:15;;;;;;;6.37;3.60;;;;;;;6.50;88.71;98736.31;5025642;28;20202;-70
2021/12/28 11:25:42;;;;;;;5.00;3.17;;;;;;;6.53;89.37;98735.25;5022813;28;20902;-70
2021/12/28 11:28:13;;;;;;;5.57;3.27;;;;;;;6.58;89.34;98722.53;5022609;28;20230;-71
2021/12/28 11:30:40;;;;;;;6.80;3.27;;;;;;;6.62;88.78;98716.03;5019413;28;20206;-70
2021/12/28 11:33:07;;;;;;;5.10;2.90;;;;;;;6.66;88.87;98724.56;5021428;28;20214;-70
2021/12/28 11:35:34;;;;;;;5.77;3.30;;;;;;;6.70;89.31;98712.78;5029094;28;20279;-70
2021/12/28 11:38:02;;;;;;;5.80;3.63;;;;;;;6.73;89.31;98708.09;5024932;28;20226;-70